createdAt,value
2023-02-03T00:00:58.456Z,6
2023-02-03T00:01:58.475Z,1.6
2023-02-03T00:02:58.555Z,2.7
2023-02-03T00:03:58.434Z,4.9
2023-02-03T00:04:58.450Z,4.4
2023-02-03T00:05:58.437Z,5.800000000000001
2023-02-03T00:06:58.441Z,2.8000000000000003
2023-02-03T00:07:58.439Z,0
2023-02-03T00:08:58.447Z,1.7000000000000002
2023-02-03T00:09:58.442Z,2.5
2023-02-03T00:10:58.452Z,1
2023-02-03T00:11:58.459Z,0
2023-02-03T00:12:58.454Z,0
2023-02-03T00:13:58.476Z,0
2023-02-03T00:14:58.454Z,3.5
2023-02-03T00:15:58.509Z,2.2
2023-02-03T00:16:58.493Z,2.1
2023-02-03T00:17:58.451Z,3.5
2023-02-03T00:18:58.470Z,4.6000000000000005
2023-02-03T00:19:58.482Z,3.3000000000000003
2023-02-03T00:20:58.480Z,3.5
2023-02-03T00:21:58.449Z,0
2023-02-03T00:22:58.477Z,1.3
2023-02-03T00:23:58.477Z,0
2023-02-03T00:24:58.471Z,1.4000000000000001
2023-02-03T00:25:58.472Z,3.8000000000000003
2023-02-03T00:26:58.468Z,4.4
2023-02-03T00:27:58.489Z,5.2
2023-02-03T00:28:58.472Z,3.6
2023-02-03T00:29:58.476Z,2.5
2023-02-03T00:30:58.468Z,0
2023-02-03T00:31:58.584Z,3.2
2023-02-03T00:32:58.500Z,3.5
2023-02-03T00:33:58.473Z,4.5
2023-02-03T00:34:58.482Z,1.7000000000000002
2023-02-03T00:35:58.484Z,0
2023-02-03T00:36:58.479Z,0
2023-02-03T00:37:58.494Z,0
2023-02-03T00:38:58.488Z,0
2023-02-03T00:39:58.528Z,0
2023-02-03T00:40:58.492Z,0
2023-02-03T00:41:58.493Z,0
2023-02-03T00:42:58.484Z,0
2023-02-03T00:43:58.496Z,0
2023-02-03T00:44:58.491Z,0
2023-02-03T00:45:58.582Z,0
2023-02-03T00:46:58.492Z,0
2023-02-03T00:47:58.524Z,0
2023-02-03T00:48:58.523Z,0
2023-02-03T00:49:58.497Z,0
2023-02-03T00:50:58.499Z,0
2023-02-03T00:51:58.494Z,0
2023-02-03T00:52:58.498Z,0
2023-02-03T00:53:58.497Z,0
2023-02-03T00:54:58.504Z,0
2023-02-03T00:55:58.515Z,0
2023-02-03T00:56:58.503Z,0
2023-02-03T00:57:58.503Z,0
2023-02-03T00:58:58.505Z,0
2023-02-03T00:59:58.502Z,0
2023-02-03T01:00:58.554Z,0
2023-02-03T01:01:58.540Z,0
2023-02-03T01:02:58.531Z,0
2023-02-03T01:03:58.518Z,0
2023-02-03T01:04:58.537Z,0
2023-02-03T01:05:58.505Z,0
2023-02-03T01:06:58.512Z,0
2023-02-03T01:07:58.510Z,0
2023-02-03T01:08:58.507Z,0
2023-02-03T01:09:58.520Z,0
2023-02-03T01:10:58.527Z,0
2023-02-03T01:11:58.512Z,0
2023-02-03T01:12:58.511Z,0
2023-02-03T01:13:58.523Z,0
2023-02-03T01:14:58.527Z,0
2023-02-03T01:15:58.523Z,0
2023-02-03T01:16:58.608Z,0
2023-02-03T01:17:58.525Z,0
2023-02-03T01:18:58.512Z,0
2023-02-03T01:19:58.522Z,0
2023-02-03T01:20:58.537Z,0
2023-02-03T01:21:58.525Z,0
2023-02-03T01:22:58.525Z,0
2023-02-03T01:23:58.517Z,0
2023-02-03T01:24:58.532Z,0
2023-02-03T01:25:58.518Z,0
2023-02-03T01:26:58.543Z,0
2023-02-03T01:27:58.591Z,0
2023-02-03T01:28:58.515Z,0
2023-02-03T01:29:58.557Z,0
2023-02-03T01:30:58.646Z,0
2023-02-03T01:31:58.661Z,0
2023-02-03T01:32:58.520Z,0
2023-02-03T01:33:58.520Z,0
2023-02-03T01:34:58.543Z,0
2023-02-03T01:35:58.530Z,0
2023-02-03T01:36:58.558Z,0
2023-02-03T01:37:58.531Z,0
2023-02-03T01:38:58.524Z,0
2023-02-03T01:39:58.530Z,0
2023-02-03T01:40:58.521Z,0
2023-02-03T01:41:58.527Z,0
2023-02-03T01:42:58.525Z,0
2023-02-03T01:43:58.552Z,0
2023-02-03T01:44:58.550Z,0
2023-02-03T01:45:58.604Z,0
2023-02-03T01:46:58.536Z,0
2023-02-03T01:47:58.522Z,0
2023-02-03T01:48:58.529Z,0
2023-02-03T01:49:58.525Z,0
2023-02-03T01:50:58.540Z,0
2023-02-03T01:51:58.529Z,0
2023-02-03T01:52:58.565Z,0
2023-02-03T01:53:58.544Z,0
2023-02-03T01:54:58.567Z,0
2023-02-03T01:55:58.543Z,0
2023-02-03T01:56:58.535Z,0
2023-02-03T01:57:58.560Z,0
2023-02-03T01:58:58.539Z,0
2023-02-03T01:59:58.578Z,0
2023-02-03T02:00:58.623Z,0
2023-02-03T02:01:58.549Z,0
2023-02-03T02:02:58.552Z,0
2023-02-03T02:03:58.566Z,0
2023-02-03T02:04:58.548Z,0
2023-02-03T02:05:58.554Z,0
2023-02-03T02:06:58.596Z,0
2023-02-03T02:07:58.567Z,0
2023-02-03T02:08:58.588Z,0
2023-02-03T02:09:58.561Z,0
2023-02-03T02:10:58.564Z,0
2023-02-03T02:11:58.568Z,0
2023-02-03T02:12:58.569Z,0
2023-02-03T02:13:58.572Z,0
2023-02-03T02:14:58.587Z,0
2023-02-03T02:15:58.649Z,0
2023-02-03T02:16:58.584Z,0
2023-02-03T02:17:58.592Z,0
2023-02-03T02:18:58.588Z,0
2023-02-03T02:19:58.583Z,0
2023-02-03T02:20:58.587Z,0
2023-02-03T02:21:58.608Z,0
2023-02-03T02:22:58.602Z,0
2023-02-03T02:23:58.588Z,0
2023-02-03T02:24:58.634Z,0
2023-02-03T02:25:58.594Z,0
2023-02-03T02:26:58.603Z,0
2023-02-03T02:27:58.698Z,0
2023-02-03T02:28:58.597Z,0
2023-02-03T02:29:58.606Z,0
2023-02-03T02:30:58.725Z,0
2023-02-03T02:31:58.687Z,0
2023-02-03T02:32:58.614Z,0
2023-02-03T02:33:58.623Z,0
2023-02-03T02:34:58.626Z,0
2023-02-03T02:35:58.614Z,0
2023-02-03T02:36:58.628Z,0
2023-02-03T02:37:58.645Z,0
2023-02-03T02:38:58.651Z,0
2023-02-03T02:39:58.644Z,0
2023-02-03T02:40:58.650Z,0
2023-02-03T02:41:58.635Z,0
2023-02-03T02:42:58.631Z,0
2023-02-03T02:43:58.641Z,0
2023-02-03T02:44:58.636Z,0
2023-02-03T02:45:58.704Z,0
2023-02-03T02:46:58.638Z,0
2023-02-03T02:47:58.646Z,0
2023-02-03T02:48:58.673Z,0
2023-02-03T02:49:58.651Z,0
2023-02-03T02:50:58.643Z,0
2023-02-03T02:51:58.670Z,0
2023-02-03T02:52:58.646Z,0
2023-02-03T02:53:58.657Z,0
2023-02-03T02:54:58.648Z,0
2023-02-03T02:55:58.660Z,0
2023-02-03T02:56:58.718Z,0
2023-02-03T02:57:58.665Z,0
2023-02-03T02:58:58.660Z,8.700000000000001
2023-02-03T02:59:58.667Z,5.6000000000000005
2023-02-03T03:00:58.671Z,0
2023-02-03T03:01:58.751Z,0
2023-02-03T03:02:58.683Z,0
2023-02-03T03:03:58.674Z,0
2023-02-03T03:04:58.727Z,4.2
2023-02-03T03:05:58.679Z,1.6
2023-02-03T03:06:58.687Z,0
2023-02-03T03:07:58.682Z,6.9
2023-02-03T03:08:58.706Z,8.8
2023-02-03T03:09:58.692Z,0
2023-02-03T03:10:58.695Z,9.200000000000001
2023-02-03T03:11:58.704Z,6.4
2023-02-03T03:12:58.716Z,3.5
2023-02-03T03:13:58.691Z,0
2023-02-03T03:14:58.699Z,0
2023-02-03T03:15:58.749Z,0
2023-02-03T03:16:58.699Z,0
2023-02-03T03:17:58.717Z,0
2023-02-03T03:18:58.718Z,8
2023-02-03T03:19:58.703Z,4.2
2023-02-03T03:20:58.710Z,6.2
2023-02-03T03:21:58.717Z,0
2023-02-03T03:22:58.716Z,0
2023-02-03T03:23:58.713Z,0
2023-02-03T03:24:58.716Z,0
2023-02-03T03:25:58.717Z,4.800000000000001
2023-02-03T03:26:58.726Z,5.5
2023-02-03T03:27:58.779Z,0
2023-02-03T03:28:58.763Z,0
2023-02-03T03:29:58.721Z,4.7
2023-02-03T03:30:58.801Z,3.4000000000000004
2023-02-03T03:31:58.800Z,2.2
2023-02-03T03:32:58.730Z,0
2023-02-03T03:33:58.727Z,0
2023-02-03T03:34:58.733Z,0
2023-02-03T03:35:58.743Z,0
2023-02-03T03:36:58.757Z,0
2023-02-03T03:37:58.747Z,0
2023-02-03T03:38:58.749Z,0
2023-02-03T03:39:58.755Z,0
2023-02-03T03:40:58.749Z,1.4000000000000001
2023-02-03T03:41:58.760Z,0
2023-02-03T03:42:58.751Z,0
2023-02-03T03:43:58.752Z,0
2023-02-03T03:44:58.789Z,0
2023-02-03T03:45:58.758Z,0
2023-02-03T03:46:58.751Z,0
2023-02-03T03:47:58.761Z,0
2023-02-03T03:48:58.770Z,0
2023-02-03T03:49:58.761Z,3.7
2023-02-03T03:50:58.760Z,6.2
2023-02-03T03:51:58.773Z,2.5
2023-02-03T03:52:58.762Z,7
2023-02-03T03:53:58.798Z,4.9
2023-02-03T03:54:58.770Z,4.3
2023-02-03T03:55:58.761Z,1
2023-02-03T03:56:58.760Z,3.1
2023-02-03T03:57:58.778Z,0
2023-02-03T03:58:58.771Z,4.3
2023-02-03T03:59:58.781Z,0
2023-02-03T04:00:58.808Z,0
2023-02-03T04:01:58.886Z,0
2023-02-03T04:02:58.808Z,0
2023-02-03T04:03:58.785Z,0
2023-02-03T04:04:58.776Z,0
2023-02-03T04:05:58.781Z,0
2023-02-03T04:06:58.784Z,3.7
2023-02-03T04:07:58.781Z,0
2023-02-03T04:08:58.793Z,3.2
2023-02-03T04:09:58.803Z,5.5
2023-02-03T04:10:58.806Z,3.6
2023-02-03T04:11:58.814Z,7.4
2023-02-03T04:12:58.808Z,4.6000000000000005
2023-02-03T04:13:58.802Z,4.4
2023-02-03T04:14:58.805Z,3.9000000000000004
2023-02-03T04:15:58.857Z,3
2023-02-03T04:16:58.862Z,2.3000000000000003
2023-02-03T04:17:58.808Z,0
2023-02-03T04:18:58.808Z,0
2023-02-03T04:19:58.802Z,0
2023-02-03T04:20:58.805Z,0
2023-02-03T04:21:58.798Z,0
2023-02-03T04:22:58.810Z,0
2023-02-03T04:23:58.806Z,0
2023-02-03T04:24:58.836Z,0
2023-02-03T04:25:58.822Z,0
2023-02-03T04:26:58.829Z,0
2023-02-03T04:27:58.825Z,0
2023-02-03T04:28:58.822Z,0
2023-02-03T04:29:58.820Z,5.7
2023-02-03T04:30:58.856Z,4.2
2023-02-03T04:31:58.896Z,3.4000000000000004
2023-02-03T04:32:58.839Z,2
2023-02-03T04:33:58.823Z,3.3000000000000003
2023-02-03T04:34:58.831Z,4.1000000000000005
2023-02-03T04:35:58.840Z,1.1
2023-02-03T04:36:58.837Z,3.5
2023-02-03T04:37:58.842Z,0
2023-02-03T04:38:58.833Z,0
2023-02-03T04:39:58.828Z,0
2023-02-03T04:40:58.835Z,0
2023-02-03T04:41:58.839Z,2.7
2023-02-03T04:42:58.844Z,3.5
2023-02-03T04:43:58.835Z,0.8
2023-02-03T04:44:58.850Z,0
2023-02-03T04:45:58.968Z,3.4000000000000004
2023-02-03T04:46:58.841Z,4.9
2023-02-03T04:47:58.849Z,3.3000000000000003
2023-02-03T04:48:58.882Z,0
2023-02-03T04:49:58.839Z,0
2023-02-03T04:50:58.837Z,10.100000000000001
2023-02-03T04:51:58.855Z,2.3000000000000003
2023-02-03T04:52:58.870Z,2.9000000000000004
2023-02-03T04:53:58.861Z,0.8
2023-02-03T04:54:58.893Z,0
2023-02-03T04:55:58.855Z,4.800000000000001
2023-02-03T04:56:58.873Z,4.4
2023-02-03T04:57:58.853Z,7
2023-02-03T04:58:58.856Z,12
2023-02-03T04:59:58.864Z,11.3
2023-02-03T05:00:58.931Z,9
2023-02-03T05:01:58.875Z,5.4
2023-02-03T05:02:58.904Z,8.5
2023-02-03T05:03:58.861Z,5.5
2023-02-03T05:04:58.897Z,3.9000000000000004
2023-02-03T05:05:58.863Z,5.4
2023-02-03T05:06:58.876Z,5.300000000000001
2023-02-03T05:07:58.873Z,4.4
2023-02-03T05:08:58.863Z,5.5
2023-02-03T05:09:58.883Z,7.800000000000001
2023-02-03T05:11:01.356Z,5.300000000000001
2023-02-03T05:11:58.872Z,5.6000000000000005
2023-02-03T05:12:58.899Z,5.2
2023-02-03T05:13:58.880Z,4.5
2023-02-03T05:14:58.875Z,2.5
2023-02-03T05:15:58.873Z,4.6000000000000005
2023-02-03T05:16:58.876Z,1.5
2023-02-03T05:17:58.897Z,0
2023-02-03T05:18:58.884Z,0
2023-02-03T05:19:58.886Z,0
2023-02-03T05:20:58.920Z,2.9000000000000004
2023-02-03T05:21:58.881Z,0
2023-02-03T05:22:58.898Z,0
2023-02-03T05:23:58.893Z,0
2023-02-03T05:24:58.886Z,0
2023-02-03T05:25:58.888Z,4.4
2023-02-03T05:26:58.926Z,5.7
2023-02-03T05:27:58.908Z,2.4000000000000004
2023-02-03T05:28:58.887Z,5.2
2023-02-03T05:29:58.888Z,2.2
2023-02-03T05:30:58.934Z,2.4000000000000004
2023-02-03T05:31:58.954Z,2.7
2023-02-03T05:32:58.886Z,4.5
2023-02-03T05:33:58.897Z,4.6000000000000005
2023-02-03T05:34:58.888Z,7.300000000000001
2023-02-03T05:35:58.897Z,2.8000000000000003
2023-02-03T05:36:58.913Z,0
2023-02-03T05:37:58.893Z,1.4000000000000001
2023-02-03T05:38:58.899Z,2.8000000000000003
2023-02-03T05:39:58.947Z,2.7
2023-02-03T05:40:58.921Z,0
2023-02-03T05:41:58.908Z,2.4000000000000004
2023-02-03T05:42:58.906Z,0
2023-02-03T05:43:58.906Z,0
2023-02-03T05:44:58.910Z,0
2023-02-03T05:45:58.937Z,3.6
2023-02-03T05:46:58.929Z,0
2023-02-03T05:47:58.901Z,0
2023-02-03T05:48:58.910Z,0
2023-02-03T05:49:58.905Z,0
2023-02-03T05:50:58.919Z,0
2023-02-03T05:51:58.917Z,0
2023-02-03T05:52:58.945Z,0
2023-02-03T05:53:58.929Z,0
2023-02-03T05:54:58.910Z,10.5
2023-02-03T05:55:58.916Z,24.700000000000003
2023-02-03T05:56:58.907Z,16.2
2023-02-03T05:57:58.911Z,5.7
2023-02-03T05:58:58.913Z,9.5
2023-02-03T05:59:58.913Z,8.5
2023-02-03T06:00:58.921Z,7.1000000000000005
2023-02-03T06:01:58.910Z,11.9
2023-02-03T06:02:58.990Z,11.3
2023-02-03T06:03:59.101Z,13.3
2023-02-03T06:04:58.927Z,10.8
2023-02-03T06:05:58.952Z,5.800000000000001
2023-02-03T06:06:58.930Z,7.800000000000001
2023-02-03T06:07:58.926Z,13
2023-02-03T06:08:58.954Z,13.3
2023-02-03T06:09:58.920Z,15.200000000000001
2023-02-03T06:10:58.921Z,16.6
2023-02-03T06:11:58.924Z,14.8
2023-02-03T06:12:58.927Z,14.9
2023-02-03T06:13:58.929Z,16.2
2023-02-03T06:14:58.922Z,15.200000000000001
2023-02-03T06:15:58.920Z,13.600000000000001
2023-02-03T06:16:58.966Z,13.8
2023-02-03T06:17:58.941Z,11.9
2023-02-03T06:18:58.921Z,9.1
2023-02-03T06:19:58.919Z,7
2023-02-03T06:20:58.921Z,14
2023-02-03T06:21:58.928Z,10.3
2023-02-03T06:22:58.937Z,13.700000000000001
2023-02-03T06:23:59.031Z,6.300000000000001
2023-02-03T06:24:58.958Z,9.5
2023-02-03T06:25:58.936Z,10.600000000000001
2023-02-03T06:26:58.932Z,7.7
2023-02-03T06:27:58.970Z,7.2
2023-02-03T06:28:58.934Z,10.700000000000001
2023-02-03T06:29:58.937Z,5.9
2023-02-03T06:30:59.044Z,5.1000000000000005
2023-02-03T06:31:59.060Z,4.800000000000001
2023-02-03T06:32:58.941Z,2.4000000000000004
2023-02-03T06:33:58.930Z,1.4000000000000001
2023-02-03T06:34:58.934Z,4.6000000000000005
2023-02-03T06:35:58.936Z,1.9000000000000001
2023-02-03T06:36:58.934Z,1.3
2023-02-03T06:37:58.952Z,6.5
2023-02-03T06:38:58.932Z,9.3
2023-02-03T06:39:58.945Z,10.4
2023-02-03T06:40:58.958Z,7.1000000000000005
2023-02-03T06:41:58.933Z,8.200000000000001
2023-02-03T06:42:58.932Z,7.7
2023-02-03T06:43:58.962Z,7
2023-02-03T06:44:58.965Z,4.800000000000001
2023-02-03T06:45:59.000Z,6.800000000000001
2023-02-03T06:46:58.943Z,5.7
2023-02-03T06:47:58.944Z,4.4
2023-02-03T06:48:58.950Z,4.800000000000001
2023-02-03T06:49:58.943Z,4.2
2023-02-03T06:50:58.956Z,0
2023-02-03T06:51:58.956Z,1.7000000000000002
2023-02-03T06:52:58.956Z,0.6000000000000001
2023-02-03T06:53:58.964Z,4.4
2023-02-03T06:54:58.965Z,5.5
2023-02-03T06:55:58.964Z,3.3000000000000003
2023-02-03T06:56:58.994Z,7.6000000000000005
2023-02-03T06:57:58.962Z,12.200000000000001
2023-02-03T06:58:58.972Z,5.6000000000000005
2023-02-03T06:59:58.974Z,5.800000000000001
2023-02-03T07:00:58.968Z,4.800000000000001
2023-02-03T07:01:58.977Z,6.5
2023-02-03T07:02:59.121Z,4.6000000000000005
2023-02-03T07:03:58.977Z,3.8000000000000003
2023-02-03T07:04:58.982Z,3.1
2023-02-03T07:05:58.991Z,0
2023-02-03T07:06:58.982Z,3.1
2023-02-03T07:07:58.994Z,4.800000000000001
2023-02-03T07:09:00.750Z,7.7
2023-02-03T07:09:58.985Z,2
2023-02-03T07:10:58.992Z,5
2023-02-03T07:11:59.001Z,2.2
2023-02-03T07:12:59.012Z,5.2
2023-02-03T07:13:59.003Z,3.3000000000000003
2023-02-03T07:14:59.005Z,2.6
2023-02-03T07:15:59.055Z,2.1
2023-02-03T07:16:59.019Z,2.4000000000000004
2023-02-03T07:17:59.014Z,2
2023-02-03T07:18:59.013Z,5
2023-02-03T07:19:59.000Z,5.4
2023-02-03T07:20:59.007Z,4.3
2023-02-03T07:21:59.005Z,5
2023-02-03T07:22:59.041Z,4.7
2023-02-03T07:23:59.012Z,4.7
2023-02-03T07:24:59.017Z,8
2023-02-03T07:25:59.020Z,5.1000000000000005
2023-02-03T07:26:59.024Z,2.6
2023-02-03T07:27:59.069Z,0
2023-02-03T07:28:59.041Z,0
2023-02-03T07:29:59.038Z,0
2023-02-03T07:30:59.106Z,0
2023-02-03T07:31:59.149Z,0
2023-02-03T07:32:59.041Z,6.5
2023-02-03T07:33:59.031Z,7.300000000000001
2023-02-03T07:34:59.033Z,4.3
2023-02-03T07:35:59.034Z,3.6
2023-02-03T07:36:59.054Z,4.1000000000000005
2023-02-03T07:37:59.055Z,4.6000000000000005
2023-02-03T07:38:59.065Z,3.4000000000000004
2023-02-03T07:39:59.052Z,3.1
2023-02-03T07:40:59.044Z,3.7
2023-02-03T07:41:59.049Z,2.2
2023-02-03T07:42:59.048Z,5.6000000000000005
2023-02-03T07:43:59.045Z,5.6000000000000005
2023-02-03T07:44:59.080Z,3.7
2023-02-03T07:45:59.061Z,4.9
2023-02-03T07:46:59.060Z,3.9000000000000004
2023-02-03T07:47:59.054Z,2.5
2023-02-03T07:48:59.058Z,4.800000000000001
2023-02-03T07:49:59.061Z,2.4000000000000004
2023-02-03T07:50:59.062Z,4.6000000000000005
2023-02-03T07:51:59.061Z,2.5
2023-02-03T07:52:59.060Z,2.4000000000000004
2023-02-03T07:53:59.064Z,4.7
2023-02-03T07:54:59.062Z,4.4
2023-02-03T07:55:59.075Z,0
2023-02-03T07:56:59.074Z,0
2023-02-03T07:58:00.177Z,0
2023-02-03T07:58:59.065Z,0
2023-02-03T07:59:59.065Z,0
2023-02-03T08:00:59.096Z,0
2023-02-03T08:01:59.180Z,0
2023-02-03T08:02:59.080Z,0
2023-02-03T08:03:59.075Z,0
2023-02-03T08:04:59.139Z,0
2023-02-03T08:05:59.087Z,0
2023-02-03T08:06:59.076Z,0
2023-02-03T08:07:59.093Z,0
2023-02-03T08:08:59.078Z,4.3
2023-02-03T08:09:59.096Z,13.3
2023-02-03T08:10:59.103Z,10.4
2023-02-03T08:11:59.092Z,16.3
2023-02-03T08:12:59.098Z,12.5
2023-02-03T08:13:59.100Z,11.100000000000001
2023-02-03T08:14:59.092Z,12.3
2023-02-03T08:15:59.172Z,3.6
2023-02-03T08:16:59.138Z,9.3
2023-02-03T08:17:59.106Z,5.800000000000001
2023-02-03T08:18:59.108Z,7.9
2023-02-03T08:19:59.097Z,6.300000000000001
2023-02-03T08:20:59.090Z,4.800000000000001
2023-02-03T08:21:59.121Z,4.1000000000000005
2023-02-03T08:22:59.113Z,3.5
2023-02-03T08:23:59.112Z,0
2023-02-03T08:24:59.120Z,0
2023-02-03T08:25:59.154Z,0
2023-02-03T08:26:59.115Z,0
2023-02-03T08:27:59.165Z,0
2023-02-03T08:28:59.125Z,0
2023-02-03T08:29:59.136Z,0
2023-02-03T08:30:59.188Z,0
2023-02-03T08:31:59.173Z,0
2023-02-03T08:32:59.157Z,0
2023-02-03T08:33:59.175Z,0
2023-02-03T08:34:59.132Z,0
2023-02-03T08:35:59.138Z,0
2023-02-03T08:36:59.136Z,0
2023-02-03T08:37:59.141Z,4.5
2023-02-03T08:38:59.132Z,3.7
2023-02-03T08:39:59.138Z,6.1000000000000005
2023-02-03T08:40:59.144Z,0
2023-02-03T08:41:59.145Z,0
2023-02-03T08:42:59.148Z,0
2023-02-03T08:43:59.150Z,0
2023-02-03T08:44:59.133Z,9.4
2023-02-03T08:45:59.180Z,4.800000000000001
2023-02-03T08:46:59.152Z,6.1000000000000005
2023-02-03T08:47:59.164Z,6.300000000000001
2023-02-03T08:48:59.179Z,3.1
2023-02-03T08:49:59.156Z,1.4000000000000001
2023-02-03T08:50:59.170Z,0.8
2023-02-03T08:51:59.160Z,2.5
2023-02-03T08:52:59.164Z,0
2023-02-03T08:53:59.159Z,0
2023-02-03T08:54:59.160Z,4.4
2023-02-03T08:55:59.164Z,6.1000000000000005
2023-02-03T08:56:59.168Z,5.1000000000000005
2023-02-03T08:57:59.184Z,5
2023-02-03T08:58:59.181Z,4.6000000000000005
2023-02-03T08:59:59.175Z,5.5
2023-02-03T09:00:59.212Z,7.9
2023-02-03T09:01:59.175Z,5.5
2023-02-03T09:02:59.187Z,5.4
2023-02-03T09:03:59.195Z,1.3
2023-02-03T09:04:59.279Z,3.1
2023-02-03T09:05:59.186Z,6.4
2023-02-03T09:06:59.188Z,3.6
2023-02-03T09:07:59.179Z,7.5
2023-02-03T09:08:59.212Z,7.6000000000000005
2023-02-03T09:09:59.193Z,5.300000000000001
2023-02-03T09:10:59.181Z,9.5
2023-02-03T09:11:59.191Z,8.3
2023-02-03T09:12:59.205Z,8.8
2023-02-03T09:13:59.196Z,7.300000000000001
2023-02-03T09:14:59.218Z,6.9
2023-02-03T09:15:59.196Z,6.800000000000001
2023-02-03T09:16:59.260Z,8
2023-02-03T09:17:59.203Z,5.2
2023-02-03T09:18:59.204Z,5
2023-02-03T09:19:59.266Z,6.7
2023-02-03T09:20:59.251Z,4.5
2023-02-03T09:21:59.222Z,5.5
2023-02-03T09:22:59.215Z,3.8000000000000003
2023-02-03T09:23:59.210Z,3.8000000000000003
2023-02-03T09:24:59.220Z,6
2023-02-03T09:25:59.224Z,7.4
2023-02-03T09:26:59.229Z,5.9
2023-02-03T09:27:59.241Z,6.9
2023-02-03T09:28:59.225Z,5.5
2023-02-03T09:29:59.232Z,5.2
2023-02-03T09:30:59.278Z,5
2023-02-03T09:31:59.263Z,0
2023-02-03T09:32:59.249Z,0
2023-02-03T09:33:59.225Z,0
2023-02-03T09:34:59.241Z,2.2
2023-02-03T09:35:59.247Z,3.2
2023-02-03T09:36:59.254Z,3.7
2023-02-03T09:37:59.243Z,3.3000000000000003
2023-02-03T09:38:59.244Z,0
2023-02-03T09:39:59.271Z,0
2023-02-03T09:41:09.500Z,0
2023-02-03T09:42:01.056Z,0
2023-02-03T09:42:59.262Z,0
2023-02-03T09:43:59.244Z,0
2023-02-03T09:44:59.267Z,0
2023-02-03T09:45:59.280Z,0
2023-02-03T09:46:59.252Z,0
2023-02-03T09:47:59.239Z,0
2023-02-03T09:48:59.242Z,0
2023-02-03T09:49:59.273Z,0
2023-02-03T09:50:59.252Z,0
2023-02-03T09:51:59.250Z,0
2023-02-03T09:52:59.279Z,0
2023-02-03T09:53:59.258Z,0
2023-02-03T09:54:59.254Z,0
2023-02-03T09:55:59.265Z,0
2023-02-03T09:56:59.261Z,0
2023-02-03T09:57:59.275Z,0
2023-02-03T09:58:59.272Z,0
2023-02-03T09:59:59.280Z,0
2023-02-03T10:00:59.289Z,4.3
2023-02-03T10:01:59.265Z,9.1
2023-02-03T10:02:59.322Z,8.3
2023-02-03T10:03:59.279Z,5.9
2023-02-03T10:04:59.270Z,3.4000000000000004
2023-02-03T10:05:59.284Z,2.2
2023-02-03T10:06:59.285Z,1.7000000000000002
2023-02-03T10:07:59.277Z,2.8000000000000003
2023-02-03T10:08:59.318Z,2.6
2023-02-03T10:09:59.289Z,0
2023-02-03T10:10:59.276Z,6.4
2023-02-03T10:11:59.274Z,3
2023-02-03T10:12:59.279Z,3.1
2023-02-03T10:13:59.308Z,5.7
2023-02-03T10:14:59.289Z,18.5
2023-02-03T10:15:59.284Z,10.9
2023-02-03T10:16:59.332Z,12.600000000000001
2023-02-03T10:17:59.290Z,6.800000000000001
2023-02-03T10:18:59.281Z,7.6000000000000005
2023-02-03T10:19:59.288Z,5.9
2023-02-03T10:20:59.281Z,4.2
2023-02-03T10:21:59.284Z,2.8000000000000003
2023-02-03T10:22:59.282Z,3.5
2023-02-03T10:23:59.279Z,6
2023-02-03T10:24:59.300Z,7.4
2023-02-03T10:25:59.291Z,3.8000000000000003
2023-02-03T10:26:59.292Z,0
2023-02-03T10:27:59.370Z,0
2023-02-03T10:28:59.290Z,9.8
2023-02-03T10:29:59.306Z,5.300000000000001
2023-02-03T10:30:59.406Z,6.9
2023-02-03T10:31:59.401Z,7.2
2023-02-03T10:32:59.296Z,7
2023-02-03T10:33:59.285Z,13.700000000000001
2023-02-03T10:34:59.305Z,17.7
2023-02-03T10:35:59.295Z,1.8
2023-02-03T10:36:59.299Z,6.9
2023-02-03T10:37:59.300Z,4.3
2023-02-03T10:38:59.288Z,6
2023-02-03T10:39:59.305Z,8.8
2023-02-03T10:40:59.330Z,10.600000000000001
2023-02-03T10:41:59.292Z,11
2023-02-03T10:42:59.301Z,7.1000000000000005
2023-02-03T10:43:59.296Z,1.7000000000000002
2023-02-03T10:44:59.299Z,7
2023-02-03T10:45:59.341Z,3.2
2023-02-03T10:46:59.309Z,5.4
2023-02-03T10:47:59.301Z,0.5
2023-02-03T10:48:59.304Z,0.9
2023-02-03T10:49:59.306Z,4.800000000000001
2023-02-03T10:50:59.326Z,2.7
2023-02-03T10:51:59.305Z,3.4000000000000004
2023-02-03T10:52:59.314Z,6.800000000000001
2023-02-03T10:53:59.311Z,3.5
2023-02-03T10:54:59.384Z,2.2
2023-02-03T10:55:59.299Z,0
2023-02-03T10:56:59.354Z,0
2023-02-03T10:57:59.312Z,0
2023-02-03T10:58:59.321Z,0
2023-02-03T10:59:59.319Z,0
2023-02-03T11:00:59.332Z,7.7
2023-02-03T11:01:59.350Z,5.1000000000000005
2023-02-03T11:02:59.315Z,3.9000000000000004
2023-02-03T11:03:59.318Z,13.700000000000001
2023-02-03T11:04:59.311Z,10.700000000000001
2023-02-03T11:05:59.309Z,9.5
2023-02-03T11:06:59.315Z,6.300000000000001
2023-02-03T11:07:59.317Z,7.2
2023-02-03T11:08:59.310Z,7.800000000000001
2023-02-03T11:09:59.327Z,9
2023-02-03T11:10:59.344Z,8.200000000000001
2023-02-03T11:11:59.317Z,8
2023-02-03T11:12:59.336Z,8.200000000000001
2023-02-03T11:13:59.349Z,8.4
2023-02-03T11:14:59.322Z,14.3
2023-02-03T11:15:59.538Z,13.700000000000001
2023-02-03T11:16:59.345Z,8.9
2023-02-03T11:17:59.324Z,5.800000000000001
2023-02-03T11:18:59.320Z,7.7
2023-02-03T11:19:59.335Z,4
2023-02-03T11:20:59.321Z,4
2023-02-03T11:21:59.341Z,9.700000000000001
2023-02-03T11:22:59.331Z,7.6000000000000005
2023-02-03T11:23:59.324Z,4.4
2023-02-03T11:24:59.330Z,4.3
2023-02-03T11:25:59.339Z,6.9
2023-02-03T11:26:59.336Z,3.2
2023-02-03T11:27:59.348Z,3.7
2023-02-03T11:28:59.343Z,20.1
2023-02-03T11:29:59.335Z,4.5
2023-02-03T11:30:59.453Z,18.8
2023-02-03T11:31:59.400Z,4.1000000000000005
2023-02-03T11:32:59.329Z,9.9
2023-02-03T11:33:59.334Z,13.700000000000001
2023-02-03T11:34:59.345Z,9.600000000000001
2023-02-03T11:35:59.323Z,6.300000000000001
2023-02-03T11:36:59.331Z,5.2
2023-02-03T11:37:59.324Z,3.3000000000000003
2023-02-03T11:38:59.333Z,3.9000000000000004
2023-02-03T11:39:59.332Z,3.7
2023-02-03T11:40:59.326Z,3.5
2023-02-03T11:41:59.329Z,10.200000000000001
2023-02-03T11:42:59.340Z,9.600000000000001
2023-02-03T11:43:59.335Z,4
2023-02-03T11:44:59.353Z,19.900000000000002
2023-02-03T11:45:59.346Z,11.9
2023-02-03T11:46:59.331Z,8
2023-02-03T11:47:59.347Z,9.3
2023-02-03T11:48:59.343Z,15.700000000000001
2023-02-03T11:49:59.342Z,13.200000000000001
2023-02-03T11:50:59.355Z,7.800000000000001
2023-02-03T11:51:59.336Z,11.100000000000001
2023-02-03T11:52:59.344Z,8.700000000000001
2023-02-03T11:53:59.366Z,6
2023-02-03T11:54:59.361Z,6
2023-02-03T11:55:59.361Z,9.200000000000001
2023-02-03T11:56:59.358Z,17.1
2023-02-03T11:57:59.362Z,4.9
2023-02-03T11:58:59.355Z,0
2023-02-03T11:59:59.361Z,4.1000000000000005
2023-02-03T12:00:59.384Z,3.6
2023-02-03T12:01:59.358Z,3.4000000000000004
2023-02-03T12:02:59.415Z,3.6
2023-02-03T12:03:59.383Z,5.1000000000000005
2023-02-03T12:05:00.997Z,10.9
2023-02-03T12:05:59.363Z,7.9
2023-02-03T12:06:59.375Z,3.6
2023-02-03T12:07:59.366Z,1.7000000000000002
2023-02-03T12:08:59.376Z,9.3
2023-02-03T12:09:59.363Z,12.3
2023-02-03T12:10:59.357Z,12.600000000000001
2023-02-03T12:11:59.372Z,7
2023-02-03T12:12:59.375Z,4.6000000000000005
2023-02-03T12:13:59.361Z,2.6
2023-02-03T12:14:59.380Z,1.1
2023-02-03T12:15:59.461Z,5.6000000000000005
2023-02-03T12:16:59.408Z,3.2
2023-02-03T12:17:59.398Z,0
2023-02-03T12:18:59.371Z,0
2023-02-03T12:19:59.391Z,0
2023-02-03T12:20:59.385Z,3.3000000000000003
2023-02-03T12:21:59.374Z,4.4
2023-02-03T12:22:59.387Z,4
2023-02-03T12:23:59.387Z,3.2
2023-02-03T12:24:59.401Z,0.8
2023-02-03T12:25:59.385Z,3.6
2023-02-03T12:26:59.477Z,2.5
2023-02-03T12:27:59.450Z,0
2023-02-03T12:28:59.394Z,0
2023-02-03T12:29:59.423Z,0
2023-02-03T12:30:59.451Z,0
2023-02-03T12:31:59.525Z,0
2023-02-03T12:32:59.460Z,0
2023-02-03T12:33:59.402Z,0
2023-02-03T12:34:59.403Z,5.7
2023-02-03T12:35:59.419Z,4.4
2023-02-03T12:36:59.452Z,0
2023-02-03T12:37:59.429Z,0
2023-02-03T12:38:59.407Z,0
2023-02-03T12:39:59.420Z,0
2023-02-03T12:40:59.420Z,0
2023-02-03T12:41:59.439Z,0
2023-02-03T12:42:59.428Z,0
2023-02-03T12:43:59.424Z,0
2023-02-03T12:44:59.433Z,0
2023-02-03T12:45:59.516Z,5
2023-02-03T12:46:59.460Z,3.9000000000000004
2023-02-03T12:47:59.447Z,4.4
2023-02-03T12:48:59.460Z,2.7
2023-02-03T12:49:59.451Z,0